sensor_id;sensor_type;location;lat;lon;timestamp;P1;durP1;ratioP1;P2;durP2;ratioP2
42802;SDS011;28447;48.682;9.022;2023-07-24T04:01:45;10.70;;;7.77;;
42802;SDS011;28447;48.682;9.022;2023-07-24T04:04:11;15.60;;;8.13;;
42802;SDS011;28447;48.682;9.022;2023-07-24T04:06:38;14.00;;;8.87;;
42802;SDS011;28447;48.682;9.022;2023-07-24T04:09:04;14.40;;;8.80;;
42802;SDS011;28447;48.682;9.022;2023-07-24T04:11:39;14.27;;;8.20;;
42802;SDS011;28447;48.682;9.022;2023-07-24T04:14:08;13.73;;;8.37;;
42802;SDS011;28447;48.682;9.022;2023-07-24T04:16:34;13.47;;;7.70;;
42802;SDS011;28447;48.682;9.022;2023-07-24T04:19:00;11.57;;;7.90;;
42802;SDS011;28447;48.682;9.022;2023-07-24T04:21:28;12.23;;;7.43;;
42802;SDS011;28447;48.682;9.022;2023-07-24T04:23:54;11.40;;;7.70;;
42802;SDS011;28447;48.682;9.022;2023-07-24T04:26:20;11.50;;;7.67;;
42802;SDS011;28447;48.682;9.022;2023-07-24T04:28:45;10.80;;;7.23;;
42802;SDS011;28447;48.682;9.022;2023-07-24T04:31:11;10.60;;;7.60;;
42802;SDS011;28447;48.682;9.022;2023-07-24T04:33:37;12.60;;;8.17;;
42802;SDS011;28447;48.682;9.022;2023-07-24T04:36:03;15.63;;;8.60;;
42802;SDS011;28447;48.682;9.022;2023-07-24T04:38:31;11.77;;;8.20;;
42802;SDS011;28447;48.682;9.022;2023-07-24T04:40:59;13.33;;;8.60;;
42802;SDS011;28447;48.682;9.022;2023-07-24T04:43:29;13.70;;;8.07;;
42802;SDS011;28447;48.682;9.022;2023-07-24T04:45:55;13.23;;;8.23;;
42802;SDS011;28447;48.682;9.022;2023-07-24T04:48:22;15.43;;;8.50;;
42802;SDS011;28447;48.682;9.022;2023-07-24T04:50:54;12.27;;;8.23;;
42802;SDS011;28447;48.682;9.022;2023-07-24T04:53:20;12.30;;;8.97;;
42802;SDS011;28447;48.682;9.022;2023-07-24T04:55:46;14.30;;;8.13;;
42802;SDS011;28447;48.682;9.022;2023-07-24T04:58:14;13.60;;;9.50;;
42802;SDS011;28447;48.682;9.022;2023-07-24T05:00:40;14.27;;;8.77;;
42802;SDS011;28447;48.682;9.022;2023-07-24T05:03:06;14.70;;;8.30;;
42802;SDS011;28447;48.682;9.022;2023-07-24T05:05:35;12.17;;;9.00;;
42802;SDS011;28447;48.682;9.022;2023-07-24T05:08:04;14.90;;;8.70;;
42802;SDS011;28447;48.682;9.022;2023-07-24T05:10:34;18.47;;;8.67;;
42802;SDS011;28447;48.682;9.022;2023-07-24T05:13:02;14.63;;;8.90;;
42802;SDS011;28447;48.682;9.022;2023-07-24T05:15:28;12.30;;;9.00;;
42802;SDS011;28447;48.682;9.022;2023-07-24T05:17:54;10.90;;;8.20;;
42802;SDS011;28447;48.682;9.022;2023-07-24T05:20:19;12.50;;;8.37;;
42802;SDS011;28447;48.682;9.022;2023-07-24T05:22:45;13.33;;;8.33;;
42802;SDS011;28447;48.682;9.022;2023-07-24T05:25:11;15.60;;;7.77;;
42802;SDS011;28447;48.682;9.022;2023-07-24T05:27:39;13.83;;;9.40;;
42802;SDS011;28447;48.682;9.022;2023-07-24T05:30:05;14.80;;;9.20;;
42802;SDS011;28447;48.682;9.022;2023-07-24T05:32:34;13.20;;;8.20;;
42802;SDS011;28447;48.682;9.022;2023-07-24T05:35:04;14.47;;;8.10;;
42802;SDS011;28447;48.682;9.022;2023-07-24T05:37:30;12.67;;;8.50;;
42802;SDS011;28447;48.682;9.022;2023-07-24T05:39:55;14.73;;;9.30;;
42802;SDS011;28447;48.682;9.022;2023-07-24T05:42:21;16.90;;;9.27;;
42802;SDS011;28447;48.682;9.022;2023-07-24T05:44:47;12.13;;;8.60;;
42802;SDS011;28447;48.682;9.022;2023-07-24T05:47:14;12.30;;;8.50;;
42802;SDS011;28447;48.682;9.022;2023-07-24T05:49:40;12.57;;;8.20;;
42802;SDS011;28447;48.682;9.022;2023-07-24T05:52:06;15.80;;;8.47;;
42802;SDS011;28447;48.682;9.022;2023-07-24T05:54:32;10.67;;;7.70;;
42802;SDS011;28447;48.682;9.022;2023-07-24T05:56:59;15.70;;;8.97;;
42802;SDS011;28447;48.682;9.022;2023-07-24T05:59:24;12.10;;;8.73;;
42802;SDS011;28447;48.682;9.022;2023-07-24T06:01:50;15.93;;;8.57;;
42802;SDS011;28447;48.682;9.022;2023-07-24T06:04:16;14.73;;;8.80;;
42802;SDS011;28447;48.682;9.022;2023-07-24T06:06:41;12.77;;;8.40;;
42802;SDS011;28447;48.682;9.022;2023-07-24T06:09:08;15.40;;;8.27;;
42802;SDS011;28447;48.682;9.022;2023-07-24T06:11:34;14.27;;;8.80;;
42802;SDS011;28447;48.682;9.022;2023-07-24T06:13:59;13.53;;;8.60;;
42802;SDS011;28447;48.682;9.022;2023-07-24T06:16:26;14.63;;;8.57;;
42802;SDS011;28447;48.682;9.022;2023-07-24T06:18:53;13.80;;;8.40;;
42802;SDS011;28447;48.682;9.022;2023-07-24T06:21:19;11.73;;;8.37;;
42802;SDS011;28447;48.682;9.022;2023-07-24T06:23:45;12.00;;;8.50;;
42802;SDS011;28447;48.682;9.022;2023-07-24T06:26:10;14.33;;;8.97;;
42802;SDS011;28447;48.682;9.022;2023-07-24T06:28:36;13.13;;;8.33;;
42802;SDS011;28447;48.682;9.022;2023-07-24T06:31:01;11.53;;;7.83;;
42802;SDS011;28447;48.682;9.022;2023-07-24T06:33:27;10.67;;;7.83;;
42802;SDS011;28447;48.682;9.022;2023-07-24T06:35:53;12.93;;;8.13;;
42802;SDS011;28447;48.682;9.022;2023-07-24T06:38:18;11.40;;;8.33;;
42802;SDS011;28447;48.682;9.022;2023-07-24T06:40:46;11.67;;;8.60;;
42802;SDS011;28447;48.682;9.022;2023-07-24T06:43:13;13.20;;;9.10;;
42802;SDS011;28447;48.682;9.022;2023-07-24T06:45:39;11.50;;;7.90;;
42802;SDS011;28447;48.682;9.022;2023-07-24T06:48:04;11.97;;;8.30;;
42802;SDS011;28447;48.682;9.022;2023-07-24T06:50:31;12.17;;;8.83;;
42802;SDS011;28447;48.682;9.022;2023-07-24T06:52:56;17.53;;;8.87;;
42802;SDS011;28447;48.682;9.022;2023-07-24T06:55:22;13.80;;;8.87;;
42802;SDS011;28447;48.682;9.022;2023-07-24T06:57:48;12.60;;;9.10;;
42802;SDS011;28447;48.682;9.022;2023-07-24T07:00:14;11.40;;;8.40;;
42802;SDS011;28447;48.682;9.022;2023-07-24T07:02:39;13.03;;;8.20;;
42802;SDS011;28447;48.682;9.022;2023-07-24T07:05:05;11.87;;;8.33;;
42802;SDS011;28447;48.682;9.022;2023-07-24T07:07:31;13.20;;;9.00;;
42802;SDS011;28447;48.682;9.022;2023-07-24T07:09:57;12.77;;;9.20;;
42802;SDS011;28447;48.682;9.022;2023-07-24T07:12:24;16.00;;;10.40;;
42802;SDS011;28447;48.682;9.022;2023-07-24T07:14:50;12.73;;;8.60;;
42802;SDS011;28447;48.682;9.022;2023-07-24T07:17:15;15.27;;;9.20;;
42802;SDS011;28447;48.682;9.022;2023-07-24T07:19:41;14.73;;;9.53;;
42802;SDS011;28447;48.682;9.022;2023-07-24T07:22:08;14.00;;;8.87;;
42802;SDS011;28447;48.682;9.022;2023-07-24T07:24:34;12.27;;;8.20;;
42802;SDS011;28447;48.682;9.022;2023-07-24T07:26:59;12.83;;;8.50;;
42802;SDS011;28447;48.682;9.022;2023-07-24T07:29:25;13.70;;;8.87;;
42802;SDS011;28447;48.682;9.022;2023-07-24T07:31:50;12.90;;;8.40;;
42802;SDS011;28447;48.682;9.022;2023-07-24T07:34:16;12.83;;;8.60;;
42802;SDS011;28447;48.682;9.022;2023-07-24T07:36:42;13.00;;;8.87;;
42802;SDS011;28447;48.682;9.022;2023-07-24T07:39:07;13.87;;;8.80;;
42802;SDS011;28447;48.682;9.022;2023-07-24T07:41:34;16.40;;;9.50;;
42802;SDS011;28447;48.682;9.022;2023-07-24T07:44:00;13.30;;;9.03;;
42802;SDS011;28447;48.682;9.022;2023-07-24T07:46:25;18.00;;;9.60;;
42802;SDS011;28447;48.682;9.022;2023-07-24T07:48:51;12.30;;;8.30;;
42802;SDS011;28447;48.682;9.022;2023-07-24T07:51:18;10.90;;;8.23;;
42802;SDS011;28447;48.682;9.022;2023-07-24T07:53:44;13.77;;;8.30;;
42802;SDS011;28447;48.682;9.022;2023-07-24T07:56:09;14.53;;;9.20;;
42802;SDS011;28447;48.682;9.022;2023-07-24T07:58:35;12.10;;;9.63;;
42802;SDS011;28447;48.682;9.022;2023-07-24T08:01:04;17.57;;;9.17;;
42802;SDS011;28447;48.682;9.022;2023-07-24T08:03:30;12.47;;;9.07;;
42802;SDS011;28447;48.682;9.022;2023-07-24T08:05:58;11.73;;;8.63;;
42802;SDS011;28447;48.682;9.022;2023-07-24T08:08:24;15.60;;;9.37;;
42802;SDS011;28447;48.682;9.022;2023-07-24T08:10:50;13.47;;;8.97;;
42802;SDS011;28447;48.682;9.022;2023-07-24T08:13:15;16.13;;;8.87;;
42802;SDS011;28447;48.682;9.022;2023-07-24T08:15:41;11.17;;;8.37;;
42802;SDS011;28447;48.682;9.022;2023-07-24T08:18:06;12.20;;;8.43;;
42802;SDS011;28447;48.682;9.022;2023-07-24T08:20:34;12.23;;;7.90;;
42802;SDS011;28447;48.682;9.022;2023-07-24T08:23:02;10.93;;;7.50;;
42802;SDS011;28447;48.682;9.022;2023-07-24T08:25:28;9.20;;;6.60;;
42802;SDS011;28447;48.682;9.022;2023-07-24T08:27:54;8.80;;;7.00;;
42802;SDS011;28447;48.682;9.022;2023-07-24T08:30:20;11.03;;;7.23;;
42802;SDS011;28447;48.682;9.022;2023-07-24T08:32:45;8.60;;;5.90;;
42802;SDS011;28447;48.682;9.022;2023-07-24T08:35:11;9.43;;;6.03;;
42802;SDS011;28447;48.682;9.022;2023-07-24T08:37:37;14.63;;;7.40;;
42802;SDS011;28447;48.682;9.022;2023-07-24T08:40:02;9.10;;;6.93;;
42802;SDS011;28447;48.682;9.022;2023-07-24T08:42:33;12.80;;;6.63;;
42802;SDS011;28447;48.682;9.022;2023-07-24T08:44:59;9.63;;;7.27;;
42802;SDS011;28447;48.682;9.022;2023-07-24T08:47:25;10.30;;;7.13;;
42802;SDS011;28447;48.682;9.022;2023-07-24T08:49:51;9.13;;;6.47;;
42802;SDS011;28447;48.682;9.022;2023-07-24T08:52:19;13.20;;;7.53;;
42802;SDS011;28447;48.682;9.022;2023-07-24T08:54:46;11.63;;;7.77;;
42802;SDS011;28447;48.682;9.022;2023-07-24T08:57:13;12.30;;;7.03;;
42802;SDS011;28447;48.682;9.022;2023-07-24T08:59:40;12.07;;;7.80;;
42802;SDS011;28447;48.682;9.022;2023-07-24T09:02:05;9.33;;;7.13;;
42802;SDS011;28447;48.682;9.022;2023-07-24T09:04:31;12.20;;;7.17;;
42802;SDS011;28447;48.682;9.022;2023-07-24T09:06:58;8.37;;;6.67;;
42802;SDS011;28447;48.682;9.022;2023-07-24T09:09:28;11.97;;;6.60;;
42802;SDS011;28447;48.682;9.022;2023-07-24T09:11:56;8.47;;;6.37;;
42802;SDS011;28447;48.682;9.022;2023-07-24T09:14:23;8.13;;;5.57;;
42802;SDS011;28447;48.682;9.022;2023-07-24T09:17:01;8.23;;;6.10;;
42802;SDS011;28447;48.682;9.022;2023-07-24T09:19:31;7.90;;;5.50;;
42802;SDS011;28447;48.682;9.022;2023-07-24T09:22:06;9.40;;;6.17;;
42802;SDS011;28447;48.682;9.022;2023-07-24T09:24:37;11.53;;;5.33;;
42802;SDS011;28447;48.682;9.022;2023-07-24T09:27:04;7.83;;;5.90;;
42802;SDS011;28447;48.682;9.022;2023-07-24T09:29:32;12.27;;;6.50;;
42802;SDS011;28447;48.682;9.022;2023-07-24T09:31:59;12.53;;;7.10;;
42802;SDS011;28447;48.682;9.022;2023-07-24T09:34:25;8.50;;;6.63;;
42802;SDS011;28447;48.682;9.022;2023-07-24T09:36:50;7.80;;;6.47;;
42802;SDS011;28447;48.682;9.022;2023-07-24T09:39:22;11.57;;;6.70;;
42802;SDS011;28447;48.682;9.022;2023-07-24T09:41:48;11.17;;;6.40;;
42802;SDS011;28447;48.682;9.022;2023-07-24T09:44:15;9.50;;;7.17;;
42802;SDS011;28447;48.682;9.022;2023-07-24T09:46:41;8.70;;;6.60;;
42802;SDS011;28447;48.682;9.022;2023-07-24T09:49:08;9.13;;;6.23;;
42802;SDS011;28447;48.682;9.022;2023-07-24T09:51:34;10.13;;;7.03;;
42802;SDS011;28447;48.682;9.022;2023-07-24T09:54:02;11.60;;;7.43;;
42802;SDS011;28447;48.682;9.022;2023-07-24T09:56:41;9.47;;;6.83;;
42802;SDS011;28447;48.682;9.022;2023-07-24T09:59:07;10.57;;;7.23;;
42802;SDS011;28447;48.682;9.022;2023-07-24T10:01:35;16.20;;;7.90;;
42802;SDS011;28447;48.682;9.022;2023-07-24T10:04:02;8.57;;;6.53;;
42802;SDS011;28447;48.682;9.022;2023-07-24T10:06:30;12.33;;;7.00;;
42802;SDS011;28447;48.682;9.022;2023-07-24T10:08:57;9.30;;;6.40;;
42802;SDS011;28447;48.682;9.022;2023-07-24T10:11:23;11.60;;;7.40;;
42802;SDS011;28447;48.682;9.022;2023-07-24T10:13:51;10.50;;;7.80;;
42802;SDS011;28447;48.682;9.022;2023-07-24T10:16:19;10.33;;;7.40;;
42802;SDS011;28447;48.682;9.022;2023-07-24T10:18:46;12.50;;;7.73;;
42802;SDS011;28447;48.682;9.022;2023-07-24T10:21:12;11.67;;;7.50;;
42802;SDS011;28447;48.682;9.022;2023-07-24T10:23:42;10.40;;;7.70;;
42802;SDS011;28447;48.682;9.022;2023-07-24T10:26:09;9.97;;;7.43;;
42802;SDS011;28447;48.682;9.022;2023-07-24T10:28:37;10.77;;;8.10;;
42802;SDS011;28447;48.682;9.022;2023-07-24T10:31:05;13.57;;;7.33;;
42802;SDS011;28447;48.682;9.022;2023-07-24T10:33:34;11.23;;;8.47;;
42802;SDS011;28447;48.682;9.022;2023-07-24T10:36:04;12.30;;;7.87;;
42802;SDS011;28447;48.682;9.022;2023-07-24T10:38:34;9.87;;;7.50;;
42802;SDS011;28447;48.682;9.022;2023-07-24T10:41:02;11.70;;;8.17;;
42802;SDS011;28447;48.682;9.022;2023-07-24T10:43:29;13.13;;;8.80;;
42802;SDS011;28447;48.682;9.022;2023-07-24T10:46:07;15.33;;;8.40;;
42802;SDS011;28447;48.682;9.022;2023-07-24T10:48:33;11.93;;;8.20;;
42802;SDS011;28447;48.682;9.022;2023-07-24T10:50:58;16.40;;;8.83;;
42802;SDS011;28447;48.682;9.022;2023-07-24T10:53:31;10.90;;;8.00;;
42802;SDS011;28447;48.682;9.022;2023-07-24T10:56:00;11.43;;;8.13;;
42802;SDS011;28447;48.682;9.022;2023-07-24T10:58:25;12.00;;;8.33;;
42802;SDS011;28447;48.682;9.022;2023-07-24T11:00:52;11.50;;;8.67;;
42802;SDS011;28447;48.682;9.022;2023-07-24T11:03:19;13.67;;;9.10;;
42802;SDS011;28447;48.682;9.022;2023-07-24T11:05:45;11.70;;;9.23;;
42802;SDS011;28447;48.682;9.022;2023-07-24T11:10:59;13.70;;;9.03;;
42802;SDS011;28447;48.682;9.022;2023-07-24T11:13:26;16.97;;;10.20;;
42802;SDS011;28447;48.682;9.022;2023-07-24T11:15:53;14.83;;;9.27;;
42802;SDS011;28447;48.682;9.022;2023-07-24T11:18:20;14.83;;;9.10;;
42802;SDS011;28447;48.682;9.022;2023-07-24T11:20:51;12.60;;;9.07;;
42802;SDS011;28447;48.682;9.022;2023-07-24T11:23:18;14.50;;;8.70;;
42802;SDS011;28447;48.682;9.022;2023-07-24T11:25:44;13.00;;;8.30;;
42802;SDS011;28447;48.682;9.022;2023-07-24T11:28:11;11.43;;;8.83;;
42802;SDS011;28447;48.682;9.022;2023-07-24T11:30:49;13.53;;;9.50;;
42802;SDS011;28447;48.682;9.022;2023-07-24T11:33:16;13.83;;;8.83;;
42802;SDS011;28447;48.682;9.022;2023-07-24T11:35:46;13.40;;;9.77;;
42802;SDS011;28447;48.682;9.022;2023-07-24T11:38:23;11.90;;;9.37;;
42802;SDS011;28447;48.682;9.022;2023-07-24T11:40:48;10.10;;;7.57;;
42802;SDS011;28447;48.682;9.022;2023-07-24T11:43:19;10.50;;;7.90;;
42802;SDS011;28447;48.682;9.022;2023-07-24T11:45:46;12.87;;;8.90;;
42802;SDS011;28447;48.682;9.022;2023-07-24T11:48:23;13.83;;;8.00;;
42802;SDS011;28447;48.682;9.022;2023-07-24T11:50:52;13.93;;;8.53;;
42802;SDS011;28447;48.682;9.022;2023-07-24T11:53:28;10.10;;;7.80;;
42802;SDS011;28447;48.682;9.022;2023-07-24T11:55:59;11.87;;;8.10;;
42802;SDS011;28447;48.682;9.022;2023-07-24T11:58:28;11.40;;;8.30;;
42802;SDS011;28447;48.682;9.022;2023-07-24T12:00:56;10.27;;;7.30;;
42802;SDS011;28447;48.682;9.022;2023-07-24T12:03:22;11.27;;;7.87;;
42802;SDS011;28447;48.682;9.022;2023-07-24T12:05:51;9.63;;;7.67;;
42802;SDS011;28447;48.682;9.022;2023-07-24T12:08:19;10.00;;;7.10;;
42802;SDS011;28447;48.682;9.022;2023-07-24T12:10:48;8.87;;;7.20;;
42802;SDS011;28447;48.682;9.022;2023-07-24T12:13:14;9.90;;;7.37;;
42802;SDS011;28447;48.682;9.022;2023-07-24T12:15:41;10.97;;;7.80;;
42802;SDS011;28447;48.682;9.022;2023-07-24T12:18:07;11.60;;;7.73;;
42802;SDS011;28447;48.682;9.022;2023-07-24T12:20:33;11.83;;;7.27;;
42802;SDS011;28447;48.682;9.022;2023-07-24T12:22:59;8.63;;;6.40;;
42802;SDS011;28447;48.682;9.022;2023-07-24T12:25:26;9.27;;;6.93;;
42802;SDS011;28447;48.682;9.022;2023-07-24T12:27:52;9.63;;;7.00;;
42802;SDS011;28447;48.682;9.022;2023-07-24T12:30:19;9.63;;;7.70;;
42802;SDS011;28447;48.682;9.022;2023-07-24T12:32:45;11.77;;;7.00;;
42802;SDS011;28447;48.682;9.022;2023-07-24T12:35:11;10.40;;;7.43;;
42802;SDS011;28447;48.682;9.022;2023-07-24T12:37:38;10.80;;;6.77;;
42802;SDS011;28447;48.682;9.022;2023-07-24T12:40:07;9.70;;;6.60;;
42802;SDS011;28447;48.682;9.022;2023-07-24T12:42:33;8.60;;;6.47;;
42802;SDS011;28447;48.682;9.022;2023-07-24T12:44:59;9.13;;;6.80;;
42802;SDS011;28447;48.682;9.022;2023-07-24T12:47:27;10.20;;;7.20;;
42802;SDS011;28447;48.682;9.022;2023-07-24T12:49:53;8.37;;;6.37;;
42802;SDS011;28447;48.682;9.022;2023-07-24T12:52:20;7.93;;;6.00;;
42802;SDS011;28447;48.682;9.022;2023-07-24T12:54:46;8.07;;;6.47;;
42802;SDS011;28447;48.682;9.022;2023-07-24T12:57:12;8.53;;;6.40;;
42802;SDS011;28447;48.682;9.022;2023-07-24T12:59:37;8.57;;;6.00;;
42802;SDS011;28447;48.682;9.022;2023-07-24T13:02:05;9.43;;;5.80;;
42802;SDS011;28447;48.682;9.022;2023-07-24T13:04:31;8.17;;;6.33;;
42802;SDS011;28447;48.682;9.022;2023-07-24T13:06:57;7.90;;;6.40;;
42802;SDS011;28447;48.682;9.022;2023-07-24T13:09:24;7.87;;;6.40;;
42802;SDS011;28447;48.682;9.022;2023-07-24T13:11:49;8.73;;;5.90;;
42802;SDS011;28447;48.682;9.022;2023-07-24T13:14:16;9.80;;;6.57;;
42802;SDS011;28447;48.682;9.022;2023-07-24T13:16:43;6.73;;;6.03;;
42802;SDS011;28447;48.682;9.022;2023-07-24T13:19:08;8.53;;;5.90;;
42802;SDS011;28447;48.682;9.022;2023-07-24T13:21:34;8.37;;;5.80;;
42802;SDS011;28447;48.682;9.022;2023-07-24T13:24:00;8.10;;;5.80;;
42802;SDS011;28447;48.682;9.022;2023-07-24T13:26:27;7.83;;;5.97;;
42802;SDS011;28447;48.682;9.022;2023-07-24T13:28:53;7.50;;;5.37;;
42802;SDS011;28447;48.682;9.022;2023-07-24T13:31:20;8.37;;;6.07;;
42802;SDS011;28447;48.682;9.022;2023-07-24T13:33:47;7.10;;;5.63;;
42802;SDS011;28447;48.682;9.022;2023-07-24T13:36:13;7.27;;;5.80;;
42802;SDS011;28447;48.682;9.022;2023-07-24T13:38:39;8.90;;;6.30;;
42802;SDS011;28447;48.682;9.022;2023-07-24T13:41:06;8.50;;;5.13;;
42802;SDS011;28447;48.682;9.022;2023-07-24T13:43:33;9.10;;;5.73;;
42802;SDS011;28447;48.682;9.022;2023-07-24T13:45:59;6.77;;;5.13;;
42802;SDS011;28447;48.682;9.022;2023-07-24T13:48:30;6.30;;;5.27;;
42802;SDS011;28447;48.682;9.022;2023-07-24T13:50:56;6.33;;;4.70;;
42802;SDS011;28447;48.682;9.022;2023-07-24T13:53:22;7.47;;;4.60;;
42802;SDS011;28447;48.682;9.022;2023-07-24T13:55:48;6.43;;;5.40;;
42802;SDS011;28447;48.682;9.022;2023-07-24T13:58:14;6.77;;;5.03;;
42802;SDS011;28447;48.682;9.022;2023-07-24T14:00:39;5.77;;;4.50;;
42802;SDS011;28447;48.682;9.022;2023-07-24T14:03:05;7.13;;;4.73;;
42802;SDS011;28447;48.682;9.022;2023-07-24T14:05:31;6.27;;;5.00;;
42802;SDS011;28447;48.682;9.022;2023-07-24T14:08:01;6.13;;;4.50;;
42802;SDS011;28447;48.682;9.022;2023-07-24T14:10:27;6.97;;;5.53;;
42802;SDS011;28447;48.682;9.022;2023-07-24T14:12:53;5.30;;;4.80;;
42802;SDS011;28447;48.682;9.022;2023-07-24T14:15:19;5.70;;;4.60;;
42802;SDS011;28447;48.682;9.022;2023-07-24T14:17:46;6.60;;;5.40;;
42802;SDS011;28447;48.682;9.022;2023-07-24T14:20:11;6.23;;;4.80;;
42802;SDS011;28447;48.682;9.022;2023-07-24T14:22:37;6.10;;;5.10;;
42802;SDS011;28447;48.682;9.022;2023-07-24T14:25:03;5.53;;;4.33;;
42802;SDS011;28447;48.682;9.022;2023-07-24T14:27:30;6.03;;;4.77;;
42802;SDS011;28447;48.682;9.022;2023-07-24T14:29:57;7.30;;;5.30;;
42802;SDS011;28447;48.682;9.022;2023-07-24T14:32:22;6.70;;;5.00;;
42802;SDS011;28447;48.682;9.022;2023-07-24T14:34:49;6.50;;;5.10;;
42802;SDS011;28447;48.682;9.022;2023-07-24T14:37:16;7.93;;;5.23;;
42802;SDS011;28447;48.682;9.022;2023-07-24T14:39:42;5.70;;;4.77;;
42802;SDS011;28447;48.682;9.022;2023-07-24T14:42:09;5.40;;;4.67;;
42802;SDS011;28447;48.682;9.022;2023-07-24T14:44:35;6.33;;;5.07;;
42802;SDS011;28447;48.682;9.022;2023-07-24T14:47:02;9.33;;;4.73;;
42802;SDS011;28447;48.682;9.022;2023-07-24T14:49:29;5.47;;;4.60;;
42802;SDS011;28447;48.682;9.022;2023-07-24T14:51:54;5.53;;;4.40;;
42802;SDS011;28447;48.682;9.022;2023-07-24T14:54:21;6.60;;;5.30;;
42802;SDS011;28447;48.682;9.022;2023-07-24T14:56:47;6.90;;;4.90;;
42802;SDS011;28447;48.682;9.022;2023-07-24T14:59:12;6.57;;;4.93;;
42802;SDS011;28447;48.682;9.022;2023-07-24T15:01:38;5.93;;;4.97;;
42802;SDS011;28447;48.682;9.022;2023-07-24T15:04:04;6.90;;;5.20;;
42802;SDS011;28447;48.682;9.022;2023-07-24T15:06:29;7.30;;;4.83;;
42802;SDS011;28447;48.682;9.022;2023-07-24T15:08:56;7.00;;;5.23;;
42802;SDS011;28447;48.682;9.022;2023-07-24T15:11:22;5.53;;;4.43;;
42802;SDS011;28447;48.682;9.022;2023-07-24T15:13:49;6.87;;;5.50;;
42802;SDS011;28447;48.682;9.022;2023-07-24T15:16:16;5.00;;;4.50;;
42802;SDS011;28447;48.682;9.022;2023-07-24T15:18:42;5.20;;;4.70;;
42802;SDS011;28447;48.682;9.022;2023-07-24T15:21:08;4.47;;;4.03;;
42802;SDS011;28447;48.682;9.022;2023-07-24T15:23:34;5.57;;;4.63;;
42802;SDS011;28447;48.682;9.022;2023-07-24T15:26:00;6.40;;;4.57;;
42802;SDS011;28447;48.682;9.022;2023-07-24T15:28:26;4.83;;;4.00;;
42802;SDS011;28447;48.682;9.022;2023-07-24T15:30:51;6.00;;;4.87;;
42802;SDS011;28447;48.682;9.022;2023-07-24T15:33:17;5.80;;;4.67;;
42802;SDS011;28447;48.682;9.022;2023-07-24T15:35:43;6.13;;;4.50;;
42802;SDS011;28447;48.682;9.022;2023-07-24T15:38:09;6.60;;;5.13;;
42802;SDS011;28447;48.682;9.022;2023-07-24T15:40:34;8.03;;;4.37;;
42802;SDS011;28447;48.682;9.022;2023-07-24T15:43:02;5.17;;;4.17;;
42802;SDS011;28447;48.682;9.022;2023-07-24T15:45:28;6.80;;;4.63;;
42802;SDS011;28447;48.682;9.022;2023-07-24T15:47:54;7.40;;;5.30;;
42802;SDS011;28447;48.682;9.022;2023-07-24T15:50:21;7.30;;;4.80;;
42802;SDS011;28447;48.682;9.022;2023-07-24T15:52:46;6.60;;;4.50;;
42802;SDS011;28447;48.682;9.022;2023-07-24T15:55:12;7.20;;;4.33;;
42802;SDS011;28447;48.682;9.022;2023-07-24T15:57:38;6.43;;;4.93;;
42802;SDS011;28447;48.682;9.022;2023-07-24T16:00:04;5.93;;;4.30;;
42802;SDS011;28447;48.682;9.022;2023-07-24T16:02:32;8.73;;;4.40;;
42802;SDS011;28447;48.682;9.022;2023-07-24T16:04:58;8.27;;;5.00;;
42802;SDS011;28447;48.682;9.022;2023-07-24T16:07:23;6.50;;;4.67;;
42802;SDS011;28447;48.682;9.022;2023-07-24T16:09:49;9.43;;;4.90;;
42802;SDS011;28447;48.682;9.022;2023-07-24T16:12:15;7.67;;;4.77;;
42802;SDS011;28447;48.682;9.022;2023-07-24T16:14:40;7.00;;;4.90;;
42802;SDS011;28447;48.682;9.022;2023-07-24T16:17:06;6.57;;;5.13;;
42802;SDS011;28447;48.682;9.022;2023-07-24T16:19:32;7.63;;;5.50;;
42802;SDS011;28447;48.682;9.022;2023-07-24T16:21:58;6.00;;;4.57;;
42802;SDS011;28447;48.682;9.022;2023-07-24T16:24:25;10.00;;;5.50;;
42802;SDS011;28447;48.682;9.022;2023-07-24T16:26:50;5.73;;;4.90;;
42802;SDS011;28447;48.682;9.022;2023-07-24T16:29:16;7.43;;;5.10;;
42802;SDS011;28447;48.682;9.022;2023-07-24T16:31:42;7.67;;;5.50;;
42802;SDS011;28447;48.682;9.022;2023-07-24T16:34:13;6.30;;;4.60;;
42802;SDS011;28447;48.682;9.022;2023-07-24T16:36:39;6.03;;;4.70;;
42802;SDS011;28447;48.682;9.022;2023-07-24T16:39:05;6.47;;;5.10;;
42802;SDS011;28447;48.682;9.022;2023-07-24T16:41:31;6.83;;;4.80;;
42802;SDS011;28447;48.682;9.022;2023-07-24T16:43:57;7.60;;;5.40;;
42802;SDS011;28447;48.682;9.022;2023-07-24T16:46:23;8.37;;;5.17;;
42802;SDS011;28447;48.682;9.022;2023-07-24T16:48:48;8.20;;;5.00;;
42802;SDS011;28447;48.682;9.022;2023-07-24T16:51:15;8.53;;;5.93;;
42802;SDS011;28447;48.682;9.022;2023-07-24T16:53:41;7.57;;;5.03;;
42802;SDS011;28447;48.682;9.022;2023-07-24T16:56:07;6.60;;;5.10;;
42802;SDS011;28447;48.682;9.022;2023-07-24T16:58:32;6.77;;;5.80;;
42802;SDS011;28447;48.682;9.022;2023-07-24T17:00:59;6.23;;;4.43;;
42802;SDS011;28447;48.682;9.022;2023-07-24T17:03:25;5.40;;;4.53;;
42802;SDS011;28447;48.682;9.022;2023-07-24T17:05:53;5.20;;;3.80;;
42802;SDS011;28447;48.682;9.022;2023-07-24T17:08:21;5.47;;;3.27;;
42802;SDS011;28447;48.682;9.022;2023-07-24T17:10:47;4.30;;;3.47;;
42802;SDS011;28447;48.682;9.022;2023-07-24T17:13:14;4.70;;;3.27;;
42802;SDS011;28447;48.682;9.022;2023-07-24T17:15:41;5.40;;;3.47;;
42802;SDS011;28447;48.682;9.022;2023-07-24T17:18:07;3.17;;;2.60;;
42802;SDS011;28447;48.682;9.022;2023-07-24T17:20:33;3.10;;;2.30;;
42802;SDS011;28447;48.682;9.022;2023-07-24T17:22:58;2.77;;;1.83;;
42802;SDS011;28447;48.682;9.022;2023-07-24T17:25:24;3.30;;;2.20;;
42802;SDS011;28447;48.682;9.022;2023-07-24T17:27:50;3.50;;;2.40;;
42802;SDS011;28447;48.682;9.022;2023-07-24T17:30:17;3.50;;;2.47;;
42802;SDS011;28447;48.682;9.022;2023-07-24T17:32:43;3.80;;;2.30;;
42802;SDS011;28447;48.682;9.022;2023-07-24T17:35:10;2.80;;;2.13;;
42802;SDS011;28447;48.682;9.022;2023-07-24T17:37:36;3.00;;;2.50;;
42802;SDS011;28447;48.682;9.022;2023-07-24T17:40:02;7.10;;;2.80;;
42802;SDS011;28447;48.682;9.022;2023-07-24T17:42:31;2.70;;;2.30;;
42802;SDS011;28447;48.682;9.022;2023-07-24T17:44:57;3.93;;;2.43;;
42802;SDS011;28447;48.682;9.022;2023-07-24T17:47:24;4.00;;;2.77;;
42802;SDS011;28447;48.682;9.022;2023-07-24T17:49:50;3.13;;;2.27;;
42802;SDS011;28447;48.682;9.022;2023-07-24T17:52:15;3.50;;;2.63;;
42802;SDS011;28447;48.682;9.022;2023-07-24T17:54:41;5.27;;;2.73;;
42802;SDS011;28447;48.682;9.022;2023-07-24T17:57:12;4.33;;;2.90;;
42802;SDS011;28447;48.682;9.022;2023-07-24T17:59:39;3.70;;;2.33;;
42802;SDS011;28447;48.682;9.022;2023-07-24T18:02:05;3.10;;;2.80;;
42802;SDS011;28447;48.682;9.022;2023-07-24T18:04:32;3.00;;;2.60;;
42802;SDS011;28447;48.682;9.022;2023-07-24T18:06:58;3.10;;;2.57;;
42802;SDS011;28447;48.682;9.022;2023-07-24T18:09:25;4.90;;;3.20;;
42802;SDS011;28447;48.682;9.022;2023-07-24T18:11:51;5.30;;;2.63;;
42802;SDS011;28447;48.682;9.022;2023-07-24T18:14:17;4.53;;;3.27;;
42802;SDS011;28447;48.682;9.022;2023-07-24T18:16:47;3.67;;;2.73;;
42802;SDS011;28447;48.682;9.022;2023-07-24T18:19:13;2.53;;;2.33;;
42802;SDS011;28447;48.682;9.022;2023-07-24T18:21:40;3.03;;;2.60;;
42802;SDS011;28447;48.682;9.022;2023-07-24T18:24:08;3.40;;;2.60;;
42802;SDS011;28447;48.682;9.022;2023-07-24T18:26:34;4.20;;;2.70;;
42802;SDS011;28447;48.682;9.022;2023-07-24T18:29:00;3.50;;;2.73;;
42802;SDS011;28447;48.682;9.022;2023-07-24T18:31:27;3.07;;;2.50;;
42802;SDS011;28447;48.682;9.022;2023-07-24T18:33:53;5.37;;;2.90;;
42802;SDS011;28447;48.682;9.022;2023-07-24T18:36:18;4.10;;;3.00;;
42802;SDS011;28447;48.682;9.022;2023-07-24T18:38:50;2.80;;;2.37;;
42802;SDS011;28447;48.682;9.022;2023-07-24T18:41:16;3.00;;;2.70;;